sensor_id;sensor_type;location;lat;lon;timestamp;pressure;altitude;pressure_sealevel;temperature;humidity
53868;BME280;41577;47.470;19.080;2023-04-24T00:00:09;99432.94;;;13.59;52.63
53868;BME280;41577;47.470;19.080;2023-04-24T00:00:21;99437.50;;;13.58;52.93
53868;BME280;41577;47.470;19.080;2023-04-24T00:00:33;99442.88;;;13.58;52.82
53868;BME280;41577;47.470;19.080;2023-04-24T00:00:45;99434.81;;;13.58;52.75
53868;BME280;41577;47.470;19.080;2023-04-24T00:00:57;99429.94;;;13.55;52.92
53868;BME280;41577;47.470;19.080;2023-04-24T00:01:09;99434.22;;;13.56;52.93
53868;BME280;41577;47.470;19.080;2023-04-24T00:01:21;99434.00;;;13.58;52.93
53868;BME280;41577;47.470;19.080;2023-04-24T00:01:33;99441.25;;;13.57;52.71
53868;BME280;41577;47.470;19.080;2023-04-24T00:01:45;99431.56;;;13.56;52.71
53868;BME280;41577;47.470;19.080;2023-04-24T00:01:57;99437.97;;;13.55;53.01
53868;BME280;41577;47.470;19.080;2023-04-24T00:02:10;99432.59;;;13.55;52.65
53868;BME280;41577;47.470;19.080;2023-04-24T00:02:22;99429.94;;;13.55;53.05
53868;BME280;41577;47.470;19.080;2023-04-24T00:02:34;99438.78;;;13.56;52.72
53868;BME280;41577;47.470;19.080;2023-04-24T00:02:46;99436.91;;;13.56;52.85
53868;BME280;41577;47.470;19.080;2023-04-24T00:02:59;99429.94;;;13.55;52.98
53868;BME280;41577;47.470;19.080;2023-04-24T00:03:11;99433.03;;;13.52;52.67
53868;BME280;41577;47.470;19.080;2023-04-24T00:03:24;99434.47;;;13.55;52.95
53868;BME280;41577;47.470;19.080;2023-04-24T00:03:36;99437.16;;;13.55;53.03
53868;BME280;41577;47.470;19.080;2023-04-24T00:03:48;99430.97;;;13.54;53.10
53868;BME280;41577;47.470;19.080;2023-04-24T00:04:00;99428.75;;;13.51;53.21
53868;BME280;41577;47.470;19.080;2023-04-24T00:04:13;99437.97;;;13.55;53.12
53868;BME280;41577;47.470;19.080;2023-04-24T00:04:25;99435.28;;;13.55;52.96
53868;BME280;41577;47.470;19.080;2023-04-24T00:04:37;99433.41;;;13.56;53.16
53868;BME280;41577;47.470;19.080;2023-04-24T00:04:49;99429.94;;;13.55;52.99
53868;BME280;41577;47.470;19.080;2023-04-24T00:05:01;99434.47;;;13.55;53.01
53868;BME280;41577;47.470;19.080;2023-04-24T00:05:14;99430.16;;;13.54;53.30
53868;BME280;41577;47.470;19.080;2023-04-24T00:05:26;99436.31;;;13.54;53.18
53868;BME280;41577;47.470;19.080;2023-04-24T00:05:38;99438.78;;;13.56;53.22
53868;BME280;41577;47.470;19.080;2023-04-24T00:05:50;99437.97;;;13.55;52.81
53868;BME280;41577;47.470;19.080;2023-04-24T00:06:04;99426.44;;;13.55;52.88
53868;BME280;41577;47.470;19.080;2023-04-24T00:06:15;99432.59;;;13.55;53.22
53868;BME280;41577;47.470;19.080;2023-04-24T00:06:27;99433.63;;;13.54;53.16
53868;BME280;41577;47.470;19.080;2023-04-24T00:06:39;99438.78;;;13.56;53.17
53868;BME280;41577;47.470;19.080;2023-04-24T00:06:51;99428.88;;;13.56;53.21
53868;BME280;41577;47.470;19.080;2023-04-24T00:07:03;99434.22;;;13.56;53.30
53868;BME280;41577;47.470;19.080;2023-04-24T00:07:15;99426.19;;;13.56;53.44
53868;BME280;41577;47.470;19.080;2023-04-24T00:07:27;99433.19;;;13.57;53.32
53868;BME280;41577;47.470;19.080;2023-04-24T00:07:39;99423.50;;;13.56;53.31
53868;BME280;41577;47.470;19.080;2023-04-24T00:07:51;99429.94;;;13.55;53.14
53868;BME280;41577;47.470;19.080;2023-04-24T00:08:03;99435.03;;;13.57;53.41
53868;BME280;41577;47.470;19.080;2023-04-24T00:08:15;99427.00;;;13.57;53.08
53868;BME280;41577;47.470;19.080;2023-04-24T00:08:27;99430.25;;;13.59;53.20
53868;BME280;41577;47.470;19.080;2023-04-24T00:08:38;99436.69;;;13.58;53.18
53868;BME280;41577;47.470;19.080;2023-04-24T00:08:50;99429.69;;;13.57;53.40
53868;BME280;41577;47.470;19.080;2023-04-24T00:09:03;99425.16;;;13.57;53.30
53868;BME280;41577;47.470;19.080;2023-04-24T00:09:15;99424.09;;;13.58;53.12
53868;BME280;41577;47.470;19.080;2023-04-24T00:09:26;99434.00;;;13.58;53.48
53868;BME280;41577;47.470;19.080;2023-04-24T00:09:38;99432.13;;;13.58;53.14
53868;BME280;41577;47.470;19.080;2023-04-24T00:09:50;99429.47;;;13.58;53.49
53868;BME280;41577;47.470;19.080;2023-04-24T00:10:02;99434.00;;;13.58;53.37
53868;BME280;41577;47.470;19.080;2023-04-24T00:10:14;99429.47;;;13.58;53.35
53868;BME280;41577;47.470;19.080;2023-04-24T00:10:26;99436.47;;;13.59;53.41
53868;BME280;41577;47.470;19.080;2023-04-24T00:10:38;99429.25;;;13.60;53.22
53868;BME280;41577;47.470;19.080;2023-04-24T00:10:50;99431.09;;;13.59;53.04
53868;BME280;41577;47.470;19.080;2023-04-24T00:11:02;99427.38;;;13.60;53.00
53868;BME280;41577;47.470;19.080;2023-04-24T00:11:14;99431.91;;;13.60;53.17
53868;BME280;41577;47.470;19.080;2023-04-24T00:11:26;99426.56;;;13.60;53.42
53868;BME280;41577;47.470;19.080;2023-04-24T00:11:38;99436.22;;;13.61;53.01
53868;BME280;41577;47.470;19.080;2023-04-24T00:11:50;99426.34;;;13.62;53.02
53868;BME280;41577;47.470;19.080;2023-04-24T00:12:02;99430.63;;;13.63;53.05
53868;BME280;41577;47.470;19.080;2023-04-24T00:12:14;99433.53;;;13.61;53.01
53868;BME280;41577;47.470;19.080;2023-04-24T00:12:26;99429.00;;;13.62;53.07
53868;BME280;41577;47.470;19.080;2023-04-24T00:12:38;99432.50;;;13.62;53.34
53868;BME280;41577;47.470;19.080;2023-04-24T00:12:50;99433.31;;;13.63;53.54
53868;BME280;41577;47.470;19.080;2023-04-24T00:13:02;99436.00;;;13.63;53.42
53868;BME280;41577;47.470;19.080;2023-04-24T00:13:14;99431.44;;;13.63;53.31
53868;BME280;41577;47.470;19.080;2023-04-24T00:13:26;99427.97;;;13.63;53.26
53868;BME280;41577;47.470;19.080;2023-04-24T00:13:39;99429.56;;;13.64;52.99
53868;BME280;41577;47.470;19.080;2023-04-24T00:13:50;99429.56;;;13.64;53.74
53868;BME280;41577;47.470;19.080;2023-04-24T00:14:02;99431.22;;;13.65;53.09
53868;BME280;41577;47.470;19.080;2023-04-24T00:14:14;99423.19;;;13.65;53.10
53868;BME280;41577;47.470;19.080;2023-04-24T00:14:26;99431.00;;;13.66;53.11
53868;BME280;41577;47.470;19.080;2023-04-24T00:14:38;99429.34;;;13.65;53.25
53868;BME280;41577;47.470;19.080;2023-04-24T00:14:50;99430.16;;;13.66;53.26
53868;BME280;41577;47.470;19.080;2023-04-24T00:15:02;99433.69;;;13.66;53.20
53868;BME280;41577;47.470;19.080;2023-04-24T00:15:14;99420.72;;;13.63;53.36
53868;BME280;41577;47.470;19.080;2023-04-24T00:15:26;99425.66;;;13.66;52.89
53868;BME280;41577;47.470;19.080;2023-04-24T00:15:38;99434.25;;;13.68;53.07
53868;BME280;41577;47.470;19.080;2023-04-24T00:15:50;99431.56;;;13.68;53.00
53868;BME280;41577;47.470;19.080;2023-04-24T00:16:02;99432.41;;;13.69;53.20
53868;BME280;41577;47.470;19.080;2023-04-24T00:16:14;99429.72;;;13.69;53.26
53868;BME280;41577;47.470;19.080;2023-04-24T00:16:26;99429.72;;;13.69;53.27
53868;BME280;41577;47.470;19.080;2023-04-24T00:16:38;99431.34;;;13.70;52.98
53868;BME280;41577;47.470;19.080;2023-04-24T00:16:53;99431.34;;;13.70;53.05
53868;BME280;41577;47.470;19.080;2023-04-24T00:17:05;99428.66;;;13.70;53.12
53868;BME280;41577;47.470;19.080;2023-04-24T00:17:17;99433.81;;;13.71;53.41
53868;BME280;41577;47.470;19.080;2023-04-24T00:17:29;99436.50;;;13.71;53.16
53868;BME280;41577;47.470;19.080;2023-04-24T00:17:41;99434.41;;;13.73;52.74
53868;BME280;41577;47.470;19.080;2023-04-24T00:17:53;99438.94;;;13.73;53.19
53868;BME280;41577;47.470;19.080;2023-04-24T00:18:05;99434.41;;;13.73;53.28
53868;BME280;41577;47.470;19.080;2023-04-24T00:18:17;99441.41;;;13.74;53.31
53868;BME280;41577;47.470;19.080;2023-04-24T00:18:29;99441.41;;;13.74;53.30
53868;BME280;41577;47.470;19.080;2023-04-24T00:18:41;99439.53;;;13.75;53.21
53868;BME280;41577;47.470;19.080;2023-04-24T00:18:53;99444.88;;;13.75;53.22
53868;BME280;41577;47.470;19.080;2023-04-24T00:19:05;99446.53;;;13.76;52.96
53868;BME280;41577;47.470;19.080;2023-04-24T00:19:17;99441.97;;;13.76;53.20
53868;BME280;41577;47.470;19.080;2023-04-24T00:19:29;99443.84;;;13.76;52.82
53868;BME280;41577;47.470;19.080;2023-04-24T00:19:41;99441.97;;;13.76;52.96
53868;BME280;41577;47.470;19.080;2023-04-24T00:19:53;99439.31;;;13.76;53.21
53868;BME280;41577;47.470;19.080;2023-04-24T00:20:06;99442.78;;;13.77;53.03
53868;BME280;41577;47.470;19.080;2023-04-24T00:20:18;99444.44;;;13.78;52.82
53868;BME280;41577;47.470;19.080;2023-04-24T00:20:30;99447.13;;;13.78;53.20
53868;BME280;41577;47.470;19.080;2023-04-24T00:20:42;99443.59;;;13.77;53.13
53868;BME280;41577;47.470;19.080;2023-04-24T00:20:54;99439.88;;;13.78;53.32
53868;BME280;41577;47.470;19.080;2023-04-24T00:21:07;99442.78;;;13.77;53.15
53868;BME280;41577;47.470;19.080;2023-04-24T00:21:19;99441.75;;;13.78;53.01
53868;BME280;41577;47.470;19.080;2023-04-24T00:21:32;99439.88;;;13.78;53.12
53868;BME280;41577;47.470;19.080;2023-04-24T00:21:44;99447.94;;;13.78;53.10
53868;BME280;41577;47.470;19.080;2023-04-24T00:21:55;99439.88;;;13.78;53.44
53868;BME280;41577;47.470;19.080;2023-04-24T00:22:07;99433.72;;;13.78;53.37
53868;BME280;41577;47.470;19.080;2023-04-24T00:22:19;99439.88;;;13.78;53.48
53868;BME280;41577;47.470;19.080;2023-04-24T00:22:32;99446.88;;;13.79;53.16
53868;BME280;41577;47.470;19.080;2023-04-24T00:22:44;99441.50;;;13.79;53.37
53868;BME280;41577;47.470;19.080;2023-04-24T00:22:55;99448.53;;;13.80;53.30
53868;BME280;41577;47.470;19.080;2023-04-24T00:23:07;99440.47;;;13.80;53.01
53868;BME280;41577;47.470;19.080;2023-04-24T00:23:19;99448.53;;;13.80;53.39
53868;BME280;41577;47.470;19.080;2023-04-24T00:23:31;99448.53;;;13.80;53.48
53868;BME280;41577;47.470;19.080;2023-04-24T00:23:43;99440.47;;;13.80;53.30
53868;BME280;41577;47.470;19.080;2023-04-24T00:23:55;99442.91;;;13.82;53.27
53868;BME280;41577;47.470;19.080;2023-04-24T00:24:07;99446.44;;;13.83;53.37
53868;BME280;41577;47.470;19.080;2023-04-24T00:24:20;99442.09;;;13.81;53.23
53868;BME280;41577;47.470;19.080;2023-04-24T00:24:32;99435.72;;;13.83;53.33
53868;BME280;41577;47.470;19.080;2023-04-24T00:24:44;99451.56;;;13.84;53.49
53868;BME280;41577;47.470;19.080;2023-04-24T00:24:56;99446.19;;;13.84;52.97
53868;BME280;41577;47.470;19.080;2023-04-24T00:25:08;99446.19;;;13.84;53.24
53868;BME280;41577;47.470;19.080;2023-04-24T00:25:20;99447.84;;;13.85;53.12
53868;BME280;41577;47.470;19.080;2023-04-24T00:25:32;99445.97;;;13.86;53.39
53868;BME280;41577;47.470;19.080;2023-04-24T00:25:44;99450.31;;;13.87;52.99
53868;BME280;41577;47.470;19.080;2023-04-24T00:25:56;99445.97;;;13.86;52.90
53868;BME280;41577;47.470;19.080;2023-04-24T00:26:08;99439.78;;;13.85;53.09
53868;BME280;41577;47.470;19.080;2023-04-24T00:26:20;99453.81;;;13.87;53.07
53868;BME280;41577;47.470;19.080;2023-04-24T00:26:32;99450.31;;;13.87;53.52
53868;BME280;41577;47.470;19.080;2023-04-24T00:26:43;99451.13;;;13.87;53.14
53868;BME280;41577;47.470;19.080;2023-04-24T00:26:55;99443.88;;;13.88;52.98
53868;BME280;41577;47.470;19.080;2023-04-24T00:27:07;99451.69;;;13.89;53.14
53868;BME280;41577;47.470;19.080;2023-04-24T00:27:19;99446.34;;;13.89;53.12
53868;BME280;41577;47.470;19.080;2023-04-24T00:27:31;99449.03;;;13.89;53.06
53868;BME280;41577;47.470;19.080;2023-04-24T00:27:43;99454.38;;;13.89;53.34
53868;BME280;41577;47.470;19.080;2023-04-24T00:27:55;99454.13;;;13.91;53.68
53868;BME280;41577;47.470;19.080;2023-04-24T00:28:07;99455.19;;;13.90;53.80
53868;BME280;41577;47.470;19.080;2023-04-24T00:28:19;99447.16;;;13.90;53.48
53868;BME280;41577;47.470;19.080;2023-04-24T00:28:31;99450.66;;;13.90;54.01
53868;BME280;41577;47.470;19.080;2023-04-24T00:28:43;99448.78;;;13.91;53.99
53868;BME280;41577;47.470;19.080;2023-04-24T00:28:55;99453.09;;;13.92;53.61
53868;BME280;41577;47.470;19.080;2023-04-24T00:29:06;99453.91;;;13.92;53.82
53868;BME280;41577;47.470;19.080;2023-04-24T00:29:19;99455.78;;;13.92;53.97
53868;BME280;41577;47.470;19.080;2023-04-24T00:29:31;99453.09;;;13.92;53.65
53868;BME280;41577;47.470;19.080;2023-04-24T00:29:42;99447.72;;;13.92;53.53
53868;BME280;41577;47.470;19.080;2023-04-24T00:29:55;99453.91;;;13.92;53.84
53868;BME280;41577;47.470;19.080;2023-04-24T00:30:07;99452.03;;;13.93;53.98
53868;BME280;41577;47.470;19.080;2023-04-24T00:30:19;99447.72;;;13.92;53.70
53868;BME280;41577;47.470;19.080;2023-04-24T00:30:32;99450.16;;;13.93;54.01
53868;BME280;41577;47.470;19.080;2023-04-24T00:30:44;99455.78;;;13.92;53.95
53868;BME280;41577;47.470;19.080;2023-04-24T00:30:56;99448.53;;;13.92;53.62
53868;BME280;41577;47.470;19.080;2023-04-24T00:31:07;99450.41;;;13.92;53.81
53868;BME280;41577;47.470;19.080;2023-04-24T00:31:20;99445.88;;;13.92;53.98
53868;BME280;41577;47.470;19.080;2023-04-24T00:31:32;99451.00;;;13.94;54.24
53868;BME280;41577;47.470;19.080;2023-04-24T00:31:44;99449.34;;;13.93;54.38
53868;BME280;41577;47.470;19.080;2023-04-24T00:31:56;99439.69;;;13.92;53.93
53868;BME280;41577;47.470;19.080;2023-04-24T00:32:08;99440.28;;;13.94;54.61
53868;BME280;41577;47.470;19.080;2023-04-24T00:32:20;99440.28;;;13.94;54.27
53868;BME280;41577;47.470;19.080;2023-04-24T00:32:32;99446.44;;;13.94;54.47
53868;BME280;41577;47.470;19.080;2023-04-24T00:32:44;99447.47;;;13.93;54.17
53868;BME280;41577;47.470;19.080;2023-04-24T00:32:56;99441.09;;;13.94;54.62
53868;BME280;41577;47.470;19.080;2023-04-24T00:33:09;99444.81;;;13.93;54.50
53868;BME280;41577;47.470;19.080;2023-04-24T00:33:22;99442.13;;;13.93;54.35
53868;BME280;41577;47.470;19.080;2023-04-24T00:33:34;99444.56;;;13.95;54.15
53868;BME280;41577;47.470;19.080;2023-04-24T00:33:46;99435.59;;;13.89;54.69
53868;BME280;41577;47.470;19.080;2023-04-24T00:33:58;99433.72;;;13.90;54.52
53868;BME280;41577;47.470;19.080;2023-04-24T00:34:10;99432.44;;;13.92;54.66
53868;BME280;41577;47.470;19.080;2023-04-24T00:34:21;99441.31;;;13.93;54.72
53868;BME280;41577;47.470;19.080;2023-04-24T00:34:33;99434.31;;;13.92;54.76
53868;BME280;41577;47.470;19.080;2023-04-24T00:34:45;99435.94;;;13.93;54.54
53868;BME280;41577;47.470;19.080;2023-04-24T00:34:57;99434.91;;;13.94;54.25
53868;BME280;41577;47.470;19.080;2023-04-24T00:35:09;99431.63;;;13.92;54.56
53868;BME280;41577;47.470;19.080;2023-04-24T00:35:21;99439.44;;;13.93;54.38
53868;BME280;41577;47.470;19.080;2023-04-24T00:35:33;99435.72;;;13.94;54.41
53868;BME280;41577;47.470;19.080;2023-04-24T00:35:45;99436.75;;;13.93;54.55
53868;BME280;41577;47.470;19.080;2023-04-24T00:35:57;99439.44;;;13.93;54.36
53868;BME280;41577;47.470;19.080;2023-04-24T00:36:13;99434.06;;;13.93;54.73
53868;BME280;41577;47.470;19.080;2023-04-24T00:36:25;99435.13;;;13.92;54.64
53868;BME280;41577;47.470;19.080;2023-04-24T00:36:37;99435.94;;;13.93;54.40
53868;BME280;41577;47.470;19.080;2023-04-24T00:36:49;99429.75;;;13.92;54.62
53868;BME280;41577;47.470;19.080;2023-04-24T00:37:02;99439.44;;;13.93;54.69
53868;BME280;41577;47.470;19.080;2023-04-24T00:37:14;99432.22;;;13.94;54.57
53868;BME280;41577;47.470;19.080;2023-04-24T00:37:28;99437.59;;;13.94;54.47
53868;BME280;41577;47.470;19.080;2023-04-24T00:37:40;99433.03;;;13.94;54.32
53868;BME280;41577;47.470;19.080;2023-04-24T00:37:53;99431.38;;;13.93;54.25
53868;BME280;41577;47.470;19.080;2023-04-24T00:38:05;99431.38;;;13.93;54.56
53868;BME280;41577;47.470;19.080;2023-04-24T00:38:17;99435.72;;;13.94;54.33
53868;BME280;41577;47.470;19.080;2023-04-24T00:38:29;99431.63;;;13.92;54.35
53868;BME280;41577;47.470;19.080;2023-04-24T00:38:40;99431.38;;;13.93;54.32
53868;BME280;41577;47.470;19.080;2023-04-24T00:38:52;99433.25;;;13.93;54.97
53868;BME280;41577;47.470;19.080;2023-04-24T00:39:04;99432.22;;;13.94;54.53
53868;BME280;41577;47.470;19.080;2023-04-24T00:39:16;99427.88;;;13.93;54.29
53868;BME280;41577;47.470;19.080;2023-04-24T00:39:28;99432.22;;;13.94;53.94
53868;BME280;41577;47.470;19.080;2023-04-24T00:39:40;99427.88;;;13.93;54.06
53868;BME280;41577;47.470;19.080;2023-04-24T00:39:53;99425.19;;;13.93;54.19
53868;BME280;41577;47.470;19.080;2023-04-24T00:40:06;99426.84;;;13.94;53.94
53868;BME280;41577;47.470;19.080;2023-04-24T00:40:18;99432.22;;;13.94;53.82
53868;BME280;41577;47.470;19.080;2023-04-24T00:40:30;99430.56;;;13.93;54.20
53868;BME280;41577;47.470;19.080;2023-04-24T00:40:42;99428.69;;;13.93;53.74
53868;BME280;41577;47.470;19.080;2023-04-24T00:40:55;99432.22;;;13.94;54.10
53868;BME280;41577;47.470;19.080;2023-04-24T00:41:07;99430.34;;;13.94;53.89
53868;BME280;41577;47.470;19.080;2023-04-24T00:41:19;99427.66;;;13.94;53.82
53868;BME280;41577;47.470;19.080;2023-04-24T00:41:31;99432.22;;;13.94;54.24
53868;BME280;41577;47.470;19.080;2023-04-24T00:41:43;99427.66;;;13.94;53.95
53868;BME280;41577;47.470;19.080;2023-04-24T00:41:56;99426.00;;;13.93;53.75
53868;BME280;41577;47.470;19.080;2023-04-24T00:42:08;99421.72;;;13.92;53.98
53868;BME280;41577;47.470;19.080;2023-04-24T00:42:20;99424.38;;;13.92;53.69
53868;BME280;41577;47.470;19.080;2023-04-24T00:42:32;99424.38;;;13.92;53.52
53868;BME280;41577;47.470;19.080;2023-04-24T00:42:44;99421.72;;;13.92;53.55
53868;BME280;41577;47.470;19.080;2023-04-24T00:42:56;99422.78;;;13.91;53.93
53868;BME280;41577;47.470;19.080;2023-04-24T00:43:09;99429.75;;;13.92;53.99
53868;BME280;41577;47.470;19.080;2023-04-24T00:43:21;99426.00;;;13.93;53.77
53868;BME280;41577;47.470;19.080;2023-04-24T00:43:39;99426.47;;;13.90;53.61
53868;BME280;41577;47.470;19.080;2023-04-24T00:43:51;99421.72;;;13.92;53.47
53868;BME280;41577;47.470;19.080;2023-04-24T00:44:03;99431.63;;;13.92;53.53
53868;BME280;41577;47.470;19.080;2023-04-24T00:44:15;99421.94;;;13.91;53.55
53868;BME280;41577;47.470;19.080;2023-04-24T00:44:27;99418.22;;;13.92;53.62
53868;BME280;41577;47.470;19.080;2023-04-24T00:44:39;99425.44;;;13.91;53.85
53868;BME280;41577;47.470;19.080;2023-04-24T00:44:53;99420.91;;;13.92;53.46
53868;BME280;41577;47.470;19.080;2023-04-24T00:45:06;99426.25;;;13.92;53.43
53868;BME280;41577;47.470;19.080;2023-04-24T00:45:18;99421.13;;;13.90;53.46
53868;BME280;41577;47.470;19.080;2023-04-24T00:45:30;99423.56;;;13.92;53.48
53868;BME280;41577;47.470;19.080;2023-04-24T00:45:43;99420.09;;;13.91;53.56
53868;BME280;41577;47.470;19.080;2023-04-24T00:45:54;99414.94;;;13.90;53.42
53868;BME280;41577;47.470;19.080;2023-04-24T00:46:07;99423.00;;;13.90;53.27
53868;BME280;41577;47.470;19.080;2023-04-24T00:46:19;99422.19;;;13.89;53.50
53868;BME280;41577;47.470;19.080;2023-04-24T00:46:31;99422.19;;;13.89;53.61
53868;BME280;41577;47.470;19.080;2023-04-24T00:46:43;99415.16;;;13.88;53.66
53868;BME280;41577;47.470;19.080;2023-04-24T00:46:56;99422.19;;;13.89;53.63
53868;BME280;41577;47.470;19.080;2023-04-24T00:47:09;99414.34;;;13.88;53.56
53868;BME280;41577;47.470;19.080;2023-04-24T00:47:22;99417.84;;;13.88;53.59
53868;BME280;41577;47.470;19.080;2023-04-24T00:47:34;99425.09;;;13.88;53.61
53868;BME280;41577;47.470;19.080;2023-04-24T00:47:46;99414.81;;;13.85;53.82
53868;BME280;41577;47.470;19.080;2023-04-24T00:48:00;99418.09;;;13.87;53.59
53868;BME280;41577;47.470;19.080;2023-04-24T00:48:13;99417.25;;;13.86;53.94
53868;BME280;41577;47.470;19.080;2023-04-24T00:48:24;99422.41;;;13.88;53.98
53868;BME280;41577;47.470;19.080;2023-04-24T00:48:37;99418.09;;;13.87;54.03
53868;BME280;41577;47.470;19.080;2023-04-24T00:48:50;99421.81;;;13.86;54.08
53868;BME280;41577;47.470;19.080;2023-04-24T00:49:02;99423.69;;;13.85;54.40
53868;BME280;41577;47.470;19.080;2023-04-24T00:49:14;99422.63;;;13.86;53.96
53868;BME280;41577;47.470;19.080;2023-04-24T00:49:27;99422.63;;;13.86;54.01
53868;BME280;41577;47.470;19.080;2023-04-24T00:49:39;99422.88;;;13.85;54.24
53868;BME280;41577;47.470;19.080;2023-04-24T00:49:51;99419.34;;;13.84;53.96
53868;BME280;41577;47.470;19.080;2023-04-24T00:50:05;99427.41;;;13.84;54.06
53868;BME280;41577;47.470;19.080;2023-04-24T00:50:17;99430.34;;;13.83;54.11
53868;BME280;41577;47.470;19.080;2023-04-24T00:50:29;99427.66;;;13.83;53.81
53868;BME280;41577;47.470;19.080;2023-04-24T00:50:41;99426.81;;;13.82;53.74
53868;BME280;41577;47.470;19.080;2023-04-24T00:50:53;99431.16;;;13.83;53.91
53868;BME280;41577;47.470;19.080;2023-04-24T00:51:05;99430.56;;;13.81;53.81
53868;BME280;41577;47.470;19.080;2023-04-24T00:51:18;99432.19;;;13.82;54.17
53868;BME280;41577;47.470;19.080;2023-04-24T00:51:30;99433.25;;;13.81;53.71
53868;BME280;41577;47.470;19.080;2023-04-24T00:51:43;99429.75;;;13.80;54.00
53868;BME280;41577;47.470;19.080;2023-04-24T00:51:55;99435.13;;;13.80;53.98
53868;BME280;41577;47.470;19.080;2023-04-24T00:52:07;99428.94;;;13.80;54.01
53868;BME280;41577;47.470;19.080;2023-04-24T00:52:19;99428.34;;;13.78;54.13
53868;BME280;41577;47.470;19.080;2023-04-24T00:52:31;99428.09;;;13.79;54.37
53868;BME280;41577;47.470;19.080;2023-04-24T00:52:43;99425.66;;;13.78;54.36
53868;BME280;41577;47.470;19.080;2023-04-24T00:52:55;99431.84;;;13.78;54.50
53868;BME280;41577;47.470;19.080;2023-04-24T00:53:07;99427.50;;;13.77;54.41
53868;BME280;41577;47.470;19.080;2023-04-24T00:53:19;99428.34;;;13.78;54.50
53868;BME280;41577;47.470;19.080;2023-04-24T00:53:31;99429.16;;;13.78;54.17
53868;BME280;41577;47.470;19.080;2023-04-24T00:53:42;99426.69;;;13.77;54.48
53868;BME280;41577;47.470;19.080;2023-04-24T00:53:54;99430.44;;;13.76;54.57
53868;BME280;41577;47.470;19.080;2023-04-24T00:54:06;99424.25;;;13.75;54.74
53868;BME280;41577;47.470;19.080;2023-04-24T00:54:18;99425.06;;;13.76;54.68
53868;BME280;41577;47.470;19.080;2023-04-24T00:54:30;99415.38;;;13.75;54.99
53868;BME280;41577;47.470;19.080;2023-04-24T00:54:42;99421.56;;;13.75;55.01
53868;BME280;41577;47.470;19.080;2023-04-24T00:54:54;99418.91;;;13.75;55.09
53868;BME280;41577;47.470;19.080;2023-04-24T00:55:07;99419.13;;;13.74;54.95
53868;BME280;41577;47.470;19.080;2023-04-24T00:55:19;99416.44;;;13.74;55.27
53868;BME280;41577;47.470;19.080;2023-04-24T00:55:31;99419.13;;;13.74;54.99
53868;BME280;41577;47.470;19.080;2023-04-24T00:55:44;99419.34;;;13.72;55.32
53868;BME280;41577;47.470;19.080;2023-04-24T00:55:57;99422.81;;;13.73;55.34
53868;BME280;41577;47.470;19.080;2023-04-24T00:56:10;99422.03;;;13.72;55.16
53868;BME280;41577;47.470;19.080;2023-04-24T00:56:22;99419.59;;;13.71;55.13
53868;BME280;41577;47.470;19.080;2023-04-24T00:56:34;99425.75;;;13.71;55.08
53868;BME280;41577;47.470;19.080;2023-04-24T00:56:46;99419.81;;;13.69;55.22
53868;BME280;41577;47.470;19.080;2023-04-24T00:56:58;99420.16;;;13.73;55.40
53868;BME280;41577;47.470;19.080;2023-04-24T00:57:10;99423.09;;;13.71;55.44
53868;BME280;41577;47.470;19.080;2023-04-24T00:57:22;99423.91;;;13.72;55.74
53868;BME280;41577;47.470;19.080;2023-04-24T00:57:34;99419.59;;;13.71;55.01
53868;BME280;41577;47.470;19.080;2023-04-24T00:57:46;99417.94;;;13.70;55.08
53868;BME280;41577;47.470;19.080;2023-04-24T00:57:59;99411.75;;;13.69;55.46
53868;BME280;41577;47.470;19.080;2023-04-24T00:58:11;99422.50;;;13.69;55.59
53868;BME280;41577;47.470;19.080;2023-04-24T00:58:23;99424.13;;;13.70;55.25
53868;BME280;41577;47.470;19.080;2023-04-24T00:58:35;99416.31;;;13.69;55.41
53868;BME280;41577;47.470;19.080;2023-04-24T00:58:47;99420.03;;;13.68;55.03
53868;BME280;41577;47.470;19.080;2023-04-24T00:58:59;99407.91;;;13.65;55.25
53868;BME280;41577;47.470;19.080;2023-04-24T00:59:11;99419.22;;;13.67;55.21
53868;BME280;41577;47.470;19.080;2023-04-24T00:59:23;99415.94;;;13.65;55.61
53868;BME280;41577;47.470;19.080;2023-04-24T00:59:35;99418.63;;;13.65;55.33
53868;BME280;41577;47.470;19.080;2023-04-24T00:59:47;99416.16;;;13.64;55.70
53868;BME280;41577;47.470;19.080;2023-04-24T00:59:59;99417.00;;;13.64;55.67
53868;BME280;41577;47.470;19.080;2023-04-24T01:00:12;99418.84;;;13.64;55.52
53868;BME280;41577;47.470;19.080;2023-04-24T01:00:26;99417.44;;;13.61;55.40
53868;BME280;41577;47.470;19.080;2023-04-24T01:00:38;99416.41;;;13.62;55.56
53868;BME280;41577;47.470;19.080;2023-04-24T01:00:51;99415.59;;;13.62;55.78
53868;BME280;41577;47.470;19.080;2023-04-24T01:01:04;99419.31;;;13.60;55.76
53868;BME280;41577;47.470;19.080;2023-04-24T01:01:15;99418.28;;;13.62;55.82
53868;BME280;41577;47.470;19.080;2023-04-24T01:01:28;99421.19;;;13.60;55.74
53868;BME280;41577;47.470;19.080;2023-04-24T01:01:40;99422.00;;;13.60;55.70
53868;BME280;41577;47.470;19.080;2023-04-24T01:01:53;99421.19;;;13.60;55.94
53868;BME280;41577;47.470;19.080;2023-04-24T01:02:05;99418.72;;;13.58;55.81
53868;BME280;41577;47.470;19.080;2023-04-24T01:02:17;99417.91;;;13.58;56.13
53868;BME280;41577;47.470;19.080;2023-04-24T01:02:29;99415.22;;;13.58;55.58
53868;BME280;41577;47.470;19.080;2023-04-24T01:02:43;99417.31;;;13.56;55.84
53868;BME280;41577;47.470;19.080;2023-04-24T01:02:57;99415.44;;;13.56;55.42
53868;BME280;41577;47.470;19.080;2023-04-24T01:03:11;99418.13;;;13.56;55.47
53868;BME280;41577;47.470;19.080;2023-04-24T01:03:25;99415.44;;;13.56;55.53
53868;BME280;41577;47.470;19.080;2023-04-24T01:03:38;99407.66;;;13.55;55.24
53868;BME280;41577;47.470;19.080;2023-04-24T01:03:52;99404.13;;;13.54;55.61